Time;durP1;ratioP1;P1;durP2;ratioP2;P2;SDS_P1;SDS_P2;PMS_P1;PMS_P2;Temp;Humidity;BMP_temperature;BMP_pressure;BME280_temperature;BME280_humidity;BME280_pressure;Samples;Min_cycle;Max_cycle;Signal;HPM_P1;HPM_P2
2022/11/17 00:00:32;;;;;;;3.53;1.80;;;;;;;;;;8357120;28;20032;-64
2022/11/17 00:04:33;;;;;;;2.90;1.42;;;;;;;;;;8357797;28;20028;-63
2022/11/17 00:08:33;;;;;;;3.47;1.80;;;;;;;;;;8355754;28;20405;-63
2022/11/17 00:16:52;;;;;;;5.72;2.05;;;;;;;;;;8360920;28;20051;-63
2022/11/17 00:25:11;;;;;;;6.10;2.65;;;;;;;;;;8360158;28;20104;-63
2022/11/17 00:29:11;;;;;;;2.58;1.58;;;;;;;;;;8358548;28;20107;-63
2022/11/17 00:37:33;;;;;;;2.83;1.13;;;;;;;;;;8361140;28;20152;-62
2022/11/17 00:41:33;;;;;;;6.53;1.60;;;;;;;;;;8361664;28;20048;-63
2022/11/17 00:45:33;;;;;;;4.93;1.88;;;;;;;;;;8362429;28;20044;-63
2022/11/17 00:49:33;;;;;;;9.95;3.38;;;;;;;;;;8360787;28;20083;-63
2022/11/17 00:53:33;;;;;;;7.10;2.45;;;;;;;;;;8360851;28;20021;-63
2022/11/17 00:57:33;;;;;;;7.22;2.50;;;;;;;;;;8359828;28;21146;-63
2022/11/17 01:01:34;;;;;;;18.00;5.30;;;;;;;;;;8359188;28;20032;-63
2022/11/17 01:05:34;;;;;;;10.07;3.33;;;;;;;;;;8359623;28;20080;-63
2022/11/17 01:09:34;;;;;;;8.75;3.63;;;;;;;;;;8357974;28;20139;-63
2022/11/17 01:13:35;;;;;;;10.00;3.78;;;;;;;;;;8339298;28;20026;-63
2022/11/17 01:17:35;;;;;;;7.93;3.05;;;;;;;;;;8357229;28;20115;-63
2022/11/17 01:21:35;;;;;;;6.85;3.15;;;;;;;;;;8357717;28;20433;-62
2022/11/17 01:25:37;;;;;;;5.97;2.83;;;;;;;;;;8360267;28;20033;-62
2022/11/17 01:29:37;;;;;;;7.82;3.95;;;;;;;;;;8360112;28;20024;-63
2022/11/17 01:33:37;;;;;;;10.02;3.47;;;;;;;;;;8358322;28;20028;-63
2022/11/17 01:37:37;;;;;;;7.30;3.10;;;;;;;;;;8360587;28;20067;-63
2022/11/17 01:41:37;;;;;;;8.88;2.90;;;;;;;;;;8360565;28;20031;-63
2022/11/17 01:45:37;;;;;;;8.38;3.08;;;;;;;;;;8360033;28;20155;-62
2022/11/17 01:49:38;;;;;;;7.07;2.92;;;;;;;;;;8359072;28;20151;-63
2022/11/17 01:53:38;;;;;;;8.77;3.25;;;;;;;;;;8358807;28;20096;-63
2022/11/17 01:57:45;;;;;;;7.73;3.20;;;;;;;;;;8359993;28;20080;-63
2022/11/17 02:01:55;;;;;;;11.02;3.38;;;;;;;;;;8357147;28;20303;-63
2022/11/17 02:06:06;;;;;;;5.50;3.05;;;;;;;;;;8360464;28;20029;-63
2022/11/17 02:10:07;;;;;;;4.78;3.03;;;;;;;;;;8359206;28;20016;-65
2022/11/17 02:14:07;;;;;;;7.65;2.90;;;;;;;;;;8356972;28;20119;-63
2022/11/17 02:18:07;;;;;;;6.72;3.03;;;;;;;;;;8355897;28;20106;-63
2022/11/17 02:22:10;;;;;;;4.13;2.58;;;;;;;;;;8359122;28;20086;-64
2022/11/17 02:26:29;;;;;;;5.32;2.53;;;;;;;;;;8357526;28;20990;-62
2022/11/17 02:30:36;;;;;;;10.27;2.63;;;;;;;;;;8355833;28;20041;-63
2022/11/17 02:34:41;;;;;;;4.88;2.70;;;;;;;;;;8357832;28;20051;-63
2022/11/17 02:38:41;;;;;;;;;;;;;;;;;;8355883;28;20024;-63
2022/11/17 02:47:03;;;;;;;4.47;2.30;;;;;;;;;;8357775;28;20794;-63
2022/11/17 02:51:05;;;;;;;7.38;2.55;;;;;;;;;;8357484;28;20036;-63
2022/11/17 02:55:07;;;;;;;7.28;2.78;;;;;;;;;;8340967;28;20036;-63
2022/11/17 02:59:07;;;;;;;4.28;2.22;;;;;;;;;;8356810;28;20342;-63
2022/11/17 03:03:14;;;;;;;5.93;3.05;;;;;;;;;;8355968;28;20040;-63
2022/11/17 03:07:36;;;;;;;4.88;2.90;;;;;;;;;;8357718;28;20030;-65
2022/11/17 03:11:52;;;;;;;2.55;1.95;;;;;;;;;;8357987;28;20031;-63
2022/11/17 03:15:53;;;;;;;9.27;3.15;;;;;;;;;;8357115;28;20032;-62
2022/11/17 03:20:05;;;;;;;7.28;2.53;;;;;;;;;;8354978;28;20028;-63
2022/11/17 03:24:11;;;;;;;4.68;2.33;;;;;;;;;;8357302;28;20484;-63
2022/11/17 03:28:12;;;;;;;12.45;4.38;;;;;;;;;;8358946;28;20814;-63
2022/11/17 03:32:14;;;;;;;16.08;5.10;;;;;;;;;;8356035;28;20036;-62
2022/11/17 03:36:15;;;;;;;8.73;3.65;;;;;;;;;;8356762;28;20028;-63
2022/11/17 03:40:19;;;;;;;8.98;2.28;;;;;;;;;;8361104;28;20508;-62
2022/11/17 03:44:19;;;;;;;4.13;1.80;;;;;;;;;;8355792;28;20020;-63
2022/11/17 03:48:38;;;;;;;4.95;1.83;;;;;;;;;;8358796;28;20875;-62
2022/11/17 03:52:39;;;;;;;1.40;1.20;;;;;;;;;;8364160;28;20600;-63
2022/11/17 03:56:40;;;;;;;9.30;1.40;;;;;;;;;;8364108;28;20087;-63
2022/11/17 04:00:40;;;;;;;3.10;1.67;;;;;;;;;;8363788;28;20449;-62
2022/11/17 04:08:59;;;;;;;3.08;1.30;;;;;;;;;;8362739;28;20086;-62
2022/11/17 04:17:19;;;;;;;2.55;1.00;;;;;;;;;;8360097;28;20067;-62
2022/11/17 04:21:19;;;;;;;3.05;1.00;;;;;;;;;;8362608;28;20042;-63
2022/11/17 04:28:35;;;;;;;6.03;1.00;;;;;;;;;;8363512;28;20520;-63
2022/11/17 04:29:39;;;;;;;3.85;0.98;;;;;;;;;;8361798;28;20074;-62
2022/11/17 04:33:41;;;;;;;2.33;1.13;;;;;;;;;;8362269;28;20029;-62
2022/11/17 04:37:41;;;;;;;2.15;0.90;;;;;;;;;;8362813;28;20032;-63
2022/11/17 04:41:55;;;;;;;2.88;1.00;;;;;;;;;;8358706;28;20749;-62
2022/11/17 04:46:01;;;;;;;1.33;1.15;;;;;;;;;;8358629;28;20690;-63
2022/11/17 04:50:01;;;;;;;3.38;1.10;;;;;;;;;;8361268;28;20531;-63
2022/11/17 04:54:02;;;;;;;2.60;1.00;;;;;;;;;;8363213;28;20012;-63
2022/11/17 04:58:02;;;;;;;1.17;0.80;;;;;;;;;;8360973;28;20024;-62
2022/11/17 05:02:03;;;;;;;4.90;1.15;;;;;;;;;;8362718;28;20118;-63
2022/11/17 05:06:03;;;;;;;1.45;0.88;;;;;;;;;;8361846;28;20098;-62
2022/11/17 05:10:03;;;;;;;1.93;0.93;;;;;;;;;;8360814;28;20140;-63
2022/11/17 05:14:03;;;;;;;7.82;1.42;;;;;;;;;;8360799;28;20555;-62
2022/11/17 05:18:04;;;;;;;2.97;1.17;;;;;;;;;;8359455;28;20189;-62
2022/11/17 05:23:52;;;;;;;7.53;1.65;;;;;;;;;;8360823;28;20074;-63
2022/11/17 05:26:28;;;;;;;5.15;1.30;;;;;;;;;;8359167;28;20032;-63
2022/11/17 05:30:28;;;;;;;2.70;1.00;;;;;;;;;;8358065;28;20485;-62
2022/11/17 05:34:29;;;;;;;3.40;1.00;;;;;;;;;;8358930;28;20123;-62
2022/11/17 05:38:29;;;;;;;3.78;1.20;;;;;;;;;;8358439;28;20312;-63
2022/11/17 05:42:30;;;;;;;3.38;1.10;;;;;;;;;;8360180;28;20155;-64
2022/11/17 05:46:30;;;;;;;2.83;0.90;;;;;;;;;;8358526;28;20135;-63
2022/11/17 05:50:30;;;;;;;2.80;1.17;;;;;;;;;;8357026;28;20025;-63
2022/11/17 05:54:30;;;;;;;4.40;1.45;;;;;;;;;;8357854;28;20028;-63
2022/11/17 05:58:32;;;;;;;4.55;1.35;;;;;;;;;;8358919;28;20670;-63
2022/11/17 06:02:35;;;;;;;4.63;0.98;;;;;;;;;;8357705;28;20174;-64
2022/11/17 06:06:36;;;;;;;2.33;0.82;;;;;;;;;;8356735;28;20056;-63
2022/11/17 06:10:36;;;;;;;4.18;1.17;;;;;;;;;;8358571;28;20024;-62
2022/11/17 06:14:38;;;;;;;4.10;1.23;;;;;;;;;;8339825;28;20008;-62
2022/11/17 06:18:40;;;;;;;3.13;1.05;;;;;;;;;;8357240;28;20040;-62
2022/11/17 06:22:40;;;;;;;3.10;1.00;;;;;;;;;;8358200;28;20028;-63
2022/11/17 06:26:41;;;;;;;5.03;1.40;;;;;;;;;;8355245;28;20082;-62
2022/11/17 06:30:41;;;;;;;3.10;1.10;;;;;;;;;;8357528;28;20040;-63
2022/11/17 06:34:42;;;;;;;3.22;0.90;;;;;;;;;;8356430;28;20028;-63
2022/11/17 06:38:42;;;;;;;2.53;1.02;;;;;;;;;;8357455;28;20016;-62
2022/11/17 06:47:01;;;;;;;5.80;1.10;;;;;;;;;;8358806;28;20357;-62
2022/11/17 06:51:03;;;;;;;3.20;0.98;;;;;;;;;;8357149;28;20020;-63
2022/11/17 06:55:03;;;;;;;5.90;1.10;;;;;;;;;;8355907;28;20020;-63
2022/11/17 06:59:03;;;;;;;6.43;1.63;;;;;;;;;;8356858;28;20021;-62
2022/11/17 07:03:05;;;;;;;2.87;1.40;;;;;;;;;;8356867;28;20068;-62
2022/11/17 07:07:05;;;;;;;5.70;1.50;;;;;;;;;;8357378;28;20274;-62
2022/11/17 07:11:09;;;;;;;6.20;1.40;;;;;;;;;;8357417;28;20035;-62
2022/11/17 07:15:10;;;;;;;4.95;1.40;;;;;;;;;;8353215;28;20483;-62
2022/11/17 07:19:11;;;;;;;5.57;1.13;;;;;;;;;;8358918;28;20036;-62
2022/11/17 07:23:12;;;;;;;5.50;1.42;;;;;;;;;;8354931;28;20028;-62
2022/11/17 07:27:12;;;;;;;6.22;1.42;;;;;;;;;;8361289;28;20047;-62
2022/11/17 07:31:13;;;;;;;8.77;1.40;;;;;;;;;;8356346;28;20034;-63
2022/11/17 07:35:13;;;;;;;9.48;1.50;;;;;;;;;;8357464;28;20020;-62
2022/11/17 07:39:14;;;;;;;7.63;1.70;;;;;;;;;;8358078;28;20070;-62
2022/11/17 07:43:14;;;;;;;7.88;1.67;;;;;;;;;;8358907;28;20270;-63
2022/11/17 07:47:15;;;;;;;6.05;1.30;;;;;;;;;;8355715;28;20783;-63
2022/11/17 07:51:16;;;;;;;8.33;1.40;;;;;;;;;;8356956;28;20636;-62
2022/11/17 07:55:16;;;;;;;5.88;1.35;;;;;;;;;;8361522;28;20753;-62
2022/11/17 07:59:16;;;;;;;5.53;2.00;;;;;;;;;;8357643;28;20544;-64
2022/11/17 08:03:17;;;;;;;5.88;1.25;;;;;;;;;;8355376;28;20135;-63
2022/11/17 08:07:17;;;;;;;3.20;1.05;;;;;;;;;;8355476;28;20946;-62
2022/11/17 08:11:18;;;;;;;5.53;1.90;;;;;;;;;;8357982;28;21115;-63
2022/11/17 08:15:18;;;;;;;6.75;1.08;;;;;;;;;;8359112;28;20016;-62
2022/11/17 08:19:19;;;;;;;4.10;1.10;;;;;;;;;;8355977;28;20021;-63
2022/11/17 08:23:19;;;;;;;4.95;1.13;;;;;;;;;;8358262;28;20444;-63
2022/11/17 08:27:20;;;;;;;4.25;1.08;;;;;;;;;;8355496;28;20086;-63
2022/11/17 08:31:20;;;;;;;2.15;1.08;;;;;;;;;;8357716;28;20041;-63
2022/11/17 08:35:22;;;;;;;1.92;1.00;;;;;;;;;;8361459;28;20029;-63
2022/11/17 08:39:22;;;;;;;3.17;1.08;;;;;;;;;;8365137;28;20055;-63
2022/11/17 08:43:22;;;;;;;4.47;1.25;;;;;;;;;;8362464;28;20033;-63
2022/11/17 08:47:22;;;;;;;4.00;1.05;;;;;;;;;;8362566;28;20148;-63
2022/11/17 08:51:23;;;;;;;6.75;1.58;;;;;;;;;;8363234;28;20395;-63
2022/11/17 08:55:25;;;;;;;4.75;1.58;;;;;;;;;;8363043;28;20024;-63
2022/11/17 08:59:25;;;;;;;5.95;1.55;;;;;;;;;;8363850;28;20119;-62
2022/11/17 09:03:25;;;;;;;5.32;1.40;;;;;;;;;;8359354;28;20235;-62
2022/11/17 09:07:25;;;;;;;11.93;1.70;;;;;;;;;;8360861;28;20036;-63
2022/11/17 09:11:26;;;;;;;5.32;1.70;;;;;;;;;;8361350;28;20078;-62
2022/11/17 09:15:26;;;;;;;8.48;2.00;;;;;;;;;;8359317;28;20164;-62
2022/11/17 09:19:26;;;;;;;7.78;2.13;;;;;;;;;;8360839;28;20510;-63
2022/11/17 09:23:27;;;;;;;6.35;1.67;;;;;;;;;;8361668;28;20493;-63
2022/11/17 09:27:27;;;;;;;6.22;1.60;;;;;;;;;;8335449;28;20032;-65
2022/11/17 09:31:28;;;;;;;7.85;2.00;;;;;;;;;;8358293;28;20036;-63
2022/11/17 09:35:28;;;;;;;7.03;1.60;;;;;;;;;;8361642;28;20031;-63
2022/11/17 09:39:28;;;;;;;7.15;1.65;;;;;;;;;;8360724;28;20029;-63
2022/11/17 09:43:30;;;;;;;7.65;1.65;;;;;;;;;;8361542;28;20417;-63
2022/11/17 09:47:43;;;;;;;6.38;1.52;;;;;;;;;;8359298;28;20051;-62
2022/11/17 09:51:45;;;;;;;8.10;1.80;;;;;;;;;;8362267;28;20559;-63
2022/11/17 09:55:46;;;;;;;4.63;1.50;;;;;;;;;;8360960;28;20021;-62
2022/11/17 09:59:53;;;;;;;5.63;1.65;;;;;;;;;;8360001;28;20422;-63
2022/11/17 10:03:55;;;;;;;5.95;1.70;;;;;;;;;;8359717;28;20032;-63
2022/11/17 10:08:11;;;;;;;6.65;2.00;;;;;;;;;;8360885;28;20016;-63
2022/11/17 10:12:23;;;;;;;8.45;1.63;;;;;;;;;;8360079;28;20722;-62
2022/11/17 10:16:24;;;;;;;7.97;2.00;;;;;;;;;;8360868;28;20456;-63
2022/11/17 10:20:24;;;;;;;7.72;1.90;;;;;;;;;;8357995;28;20112;-63
2022/11/17 10:24:33;;;;;;;5.72;1.63;;;;;;;;;;8359202;28;20360;-62
2022/11/17 10:28:33;;;;;;;6.25;1.60;;;;;;;;;;8360234;28;21834;-62
2022/11/17 10:32:35;;;;;;;5.82;1.42;;;;;;;;;;8342904;28;21517;-62
2022/11/17 10:36:35;;;;;;;7.05;1.58;;;;;;;;;;8359126;28;20029;-63
2022/11/17 10:40:38;;;;;;;7.50;1.55;;;;;;;;;;8357496;28;20810;-63
2022/11/17 10:44:40;;;;;;;7.07;1.60;;;;;;;;;;8341218;28;20123;-63
2022/11/17 10:48:52;;;;;;;5.35;1.40;;;;;;;;;;8357798;28;20032;-63
2022/11/17 10:52:54;;;;;;;6.30;1.52;;;;;;;;;;8358299;28;20012;-63
2022/11/17 10:56:56;;;;;;;3.40;1.13;;;;;;;;;;8358946;28;20028;-63
2022/11/17 11:00:58;;;;;;;4.93;1.38;;;;;;;;;;8338873;28;20046;-62
2022/11/17 11:05:09;;;;;;;2.25;0.90;;;;;;;;;;8358362;28;20082;-62
2022/11/17 11:09:12;;;;;;;3.47;1.20;;;;;;;;;;8360909;28;20031;-63
2022/11/17 11:13:38;;;;;;;6.20;1.20;;;;;;;;;;8358505;28;20850;-62
2022/11/17 11:17:38;;;;;;;6.28;1.75;;;;;;;;;;8357484;28;20143;-62
2022/11/17 11:21:58;;;;;;;7.07;1.67;;;;;;;;;;8360033;28;20021;-63
2022/11/17 11:26:17;;;;;;;6.05;1.30;;;;;;;;;;8317604;28;20055;-63
2022/11/17 11:30:18;;;;;;;4.78;1.10;;;;;;;;;;8359167;28;20024;-63
2022/11/17 11:34:21;;;;;;;6.32;1.60;;;;;;;;;;8355666;28;20063;-63
2022/11/17 11:38:21;;;;;;;2.58;0.95;;;;;;;;;;8358570;28;20054;-63
2022/11/17 11:42:31;;;;;;;2.33;0.80;;;;;;;;;;8356980;28;20038;-63
2022/11/17 11:46:37;;;;;;;5.13;1.00;;;;;;;;;;8359110;28;20044;-63
2022/11/17 11:50:55;;;;;;;2.97;0.98;;;;;;;;;;8337009;28;20528;-63
2022/11/17 11:55:04;;;;;;;4.00;0.80;;;;;;;;;;8359006;28;20020;-64
2022/11/17 11:59:15;;;;;;;2.25;0.90;;;;;;;;;;8357813;28;20029;-63
2022/11/17 12:03:34;;;;;;;2.45;0.88;;;;;;;;;;8356652;28;20029;-63
2022/11/17 12:07:39;;;;;;;2.22;1.08;;;;;;;;;;8358757;28;20143;-63
2022/11/17 12:16:25;;;;;;;2.50;0.90;;;;;;;;;;8363665;28;20047;-62
2022/11/17 12:20:28;;;;;;;3.75;1.20;;;;;;;;;;8355582;28;20158;-63
2022/11/17 12:24:35;;;;;;;2.33;1.60;;;;;;;;;;8364292;28;20020;-63
2022/11/17 12:28:37;;;;;;;5.03;1.20;;;;;;;;;;8364396;28;20035;-63
2022/11/17 12:32:43;;;;;;;2.78;1.02;;;;;;;;;;8360480;28;20623;-63
2022/11/17 12:37:03;;;;;;;3.25;1.13;;;;;;;;;;8361147;28;20151;-63
2022/11/17 12:41:05;;;;;;;4.18;1.52;;;;;;;;;;8363950;28;20080;-63
2022/11/17 12:45:11;;;;;;;4.50;1.70;;;;;;;;;;8360421;28;20043;-63
2022/11/17 12:49:21;;;;;;;4.68;1.70;;;;;;;;;;8363436;28;20027;-63
2022/11/17 12:53:37;;;;;;;4.18;1.50;;;;;;;;;;8361709;28;20461;-63
2022/11/17 12:57:37;;;;;;;5.95;1.45;;;;;;;;;;8361204;28;20040;-63
2022/11/17 13:01:46;;;;;;;4.95;1.33;;;;;;;;;;8362710;28;20031;-64
2022/11/17 13:06:04;;;;;;;5.63;1.50;;;;;;;;;;8362576;28;20949;-63
2022/11/17 13:10:04;;;;;;;9.52;1.60;;;;;;;;;;8361082;28;20385;-64
2022/11/17 13:14:09;;;;;;;8.85;2.13;;;;;;;;;;8357590;28;20020;-63
2022/11/17 13:18:10;;;;;;;6.75;1.50;;;;;;;;;;8360514;28;20522;-64
2022/11/17 13:22:10;;;;;;;6.70;1.90;;;;;;;;;;8360607;28;20040;-63
2022/11/17 13:26:24;;;;;;;7.35;1.50;;;;;;;;;;8360818;28;20553;-63
2022/11/17 13:30:26;;;;;;;7.10;1.60;;;;;;;;;;8357539;28;20914;-66
2022/11/17 13:34:27;;;;;;;5.85;1.88;;;;;;;;;;8362519;28;20024;-62
2022/11/17 13:38:27;;;;;;;6.65;1.58;;;;;;;;;;8362190;28;20039;-63
2022/11/17 13:42:32;;;;;;;6.45;1.48;;;;;;;;;;8362406;28;20020;-64
2022/11/17 13:46:33;;;;;;;7.72;1.80;;;;;;;;;;8358938;28;20044;-63
2022/11/17 13:50:35;;;;;;;5.60;1.40;;;;;;;;;;8356381;28;20013;-63
2022/11/17 13:54:36;;;;;;;5.97;2.33;;;;;;;;;;8353183;28;20389;-64
2022/11/17 13:58:38;;;;;;;3.58;1.48;;;;;;;;;;8353985;28;20013;-63
2022/11/17 14:02:50;;;;;;;9.27;2.40;;;;;;;;;;8358674;28;20047;-63
2022/11/17 14:07:00;;;;;;;5.13;1.88;;;;;;;;;;8362040;28;20025;-64
2022/11/17 14:11:23;;;;;;;7.45;1.70;;;;;;;;;;8360022;28;20461;-63
2022/11/17 14:15:24;;;;;;;7.07;3.45;;;;;;;;;;8355394;28;20041;-63
2022/11/17 14:19:27;;;;;;;5.60;1.88;;;;;;;;;;8359757;28;20021;-63
2022/11/17 14:23:27;;;;;;;4.55;1.10;;;;;;;;;;8358822;28;20037;-63
2022/11/17 14:27:28;;;;;;;5.10;1.20;;;;;;;;;;8358654;28;20061;-64
2022/11/17 14:31:29;;;;;;;6.35;1.25;;;;;;;;;;8356655;28;20039;-63
2022/11/17 14:35:29;;;;;;;3.92;1.00;;;;;;;;;;8359663;28;20024;-63
2022/11/17 14:39:29;;;;;;;3.33;1.23;;;;;;;;;;8359985;28;20039;-63
2022/11/17 14:43:30;;;;;;;8.60;1.65;;;;;;;;;;8357849;28;20028;-63
2022/11/17 14:47:31;;;;;;;3.85;1.23;;;;;;;;;;8357368;28;20167;-63
2022/11/17 14:51:31;;;;;;;4.00;1.50;;;;;;;;;;8359296;28;20020;-64
2022/11/17 14:55:31;;;;;;;2.50;1.10;;;;;;;;;;8357816;28;20020;-64
2022/11/17 14:59:31;;;;;;;4.07;1.30;;;;;;;;;;8359516;28;20036;-63
2022/11/17 15:03:32;;;;;;;3.50;1.10;;;;;;;;;;8355300;28;20242;-64
2022/11/17 15:07:32;;;;;;;4.57;1.00;;;;;;;;;;8360644;28;20168;-63
2022/11/17 15:11:32;;;;;;;3.22;1.20;;;;;;;;;;8349628;28;20055;-63
2022/11/17 15:15:32;;;;;;;0.70;0.70;;;;;;;;;;8340083;28;20559;-64
2022/11/17 15:19:33;;;;;;;1.50;0.73;;;;;;;;;;8358279;28;20212;-64
2022/11/17 15:23:35;;;;;;;2.35;0.88;;;;;;;;;;8357949;28;20081;-63
2022/11/17 15:27:35;;;;;;;4.00;1.17;;;;;;;;;;8357944;28;20033;-63
2022/11/17 15:31:35;;;;;;;2.35;0.80;;;;;;;;;;8358149;28;20036;-63
2022/11/17 15:35:35;;;;;;;1.02;0.75;;;;;;;;;;8358538;28;20024;-63
2022/11/17 15:39:36;;;;;;;0.80;0.70;;;;;;;;;;8359995;28;20031;-63
2022/11/17 15:43:37;;;;;;;0.63;0.60;;;;;;;;;;8361157;28;20127;-64
2022/11/17 15:47:37;;;;;;;1.25;0.50;;;;;;;;;;8364418;28;20040;-63
2022/11/17 15:51:37;;;;;;;1.40;0.73;;;;;;;;;;8365212;28;20021;-63
2022/11/17 15:55:38;;;;;;;1.00;0.60;;;;;;;;;;8363175;28;20024;-64
2022/11/17 15:59:38;;;;;;;3.50;0.73;;;;;;;;;;8363244;28;20020;-63
2022/11/17 16:03:39;;;;;;;0.65;0.50;;;;;;;;;;8362604;28;20032;-63
2022/11/17 16:07:39;;;;;;;0.75;0.50;;;;;;;;;;8367642;28;20020;-63
2022/11/17 16:11:39;;;;;;;2.03;0.70;;;;;;;;;;8364212;28;20077;-65
2022/11/17 16:15:40;;;;;;;1.27;0.60;;;;;;;;;;8361397;28;20161;-64
2022/11/17 16:19:40;;;;;;;2.50;1.38;;;;;;;;;;8363840;28;20032;-63
2022/11/17 16:23:47;;;;;;;2.22;1.17;;;;;;;;;;8362025;28;20283;-63
2022/11/17 16:27:47;;;;;;;4.20;1.20;;;;;;;;;;8361772;28;20029;-65
2022/11/17 16:31:48;;;;;;;2.85;1.60;;;;;;;;;;8364178;28;20227;-63
2022/11/17 16:35:48;;;;;;;2.40;1.10;;;;;;;;;;8363066;28;20017;-65
2022/11/17 16:39:48;;;;;;;1.63;0.88;;;;;;;;;;8360092;28;20834;-64
2022/11/17 16:43:48;;;;;;;1.35;0.73;;;;;;;;;;8356801;28;20787;-63
2022/11/17 16:47:49;;;;;;;0.60;0.60;;;;;;;;;;8358142;28;20035;-63
2022/11/17 16:51:52;;;;;;;1.50;0.63;;;;;;;;;;8356612;28;20079;-64
2022/11/17 16:55:52;;;;;;;2.70;0.50;;;;;;;;;;8355701;28;20048;-64
2022/11/17 16:59:52;;;;;;;1.35;0.70;;;;;;;;;;8356569;28;20035;-63
2022/11/17 17:04:00;;;;;;;1.90;0.60;;;;;;;;;;8351778;28;20032;-64
2022/11/17 17:08:00;;;;;;;0.95;0.80;;;;;;;;;;8357109;28;20544;-63
2022/11/17 17:12:00;;;;;;;1.48;1.30;;;;;;;;;;8358880;28;20118;-64
2022/11/17 17:16:08;;;;;;;3.50;2.45;;;;;;;;;;8350590;28;20086;-63
2022/11/17 17:20:08;;;;;;;5.45;1.88;;;;;;;;;;8331966;28;20013;-63
2022/11/17 17:24:09;;;;;;;16.25;9.02;;;;;;;;;;8345944;28;20314;-63
2022/11/17 17:28:09;;;;;;;9.13;6.88;;;;;;;;;;8345330;28;20024;-63
2022/11/17 17:32:09;;;;;;;5.10;3.17;;;;;;;;;;8350489;28;20810;-63
2022/11/17 17:36:10;;;;;;;3.97;2.80;;;;;;;;;;8353758;28;20012;-63
2022/11/17 17:40:11;;;;;;;7.43;3.60;;;;;;;;;;8356125;28;20821;-64
2022/11/17 17:44:15;;;;;;;4.63;3.20;;;;;;;;;;8354529;28;20020;-63
2022/11/17 17:48:16;;;;;;;7.88;4.47;;;;;;;;;;8347889;28;20033;-64
2022/11/17 17:52:16;;;;;;;4.73;2.80;;;;;;;;;;8350140;28;20017;-64
2022/11/17 17:56:17;;;;;;;4.90;2.40;;;;;;;;;;8348402;28;20267;-64
2022/11/17 18:00:17;;;;;;;7.68;3.13;;;;;;;;;;8347708;28;20016;-64
2022/11/17 18:04:18;;;;;;;4.55;2.33;;;;;;;;;;8303641;28;20052;-63
2022/11/17 18:08:18;;;;;;;6.07;2.90;;;;;;;;;;8302289;28;20829;-63
2022/11/17 18:12:18;;;;;;;3.38;2.40;;;;;;;;;;8302853;28;20025;-64
2022/11/17 18:16:23;;;;;;;5.93;2.10;;;;;;;;;;8318957;28;20040;-61
2022/11/17 18:20:23;;;;;;;3.97;2.13;;;;;;;;;;8355154;28;20660;-63
2022/11/17 18:24:23;;;;;;;6.53;2.80;;;;;;;;;;8356213;28;20028;-63
2022/11/17 18:28:24;;;;;;;4.28;2.10;;;;;;;;;;8355627;28;20093;-63
2022/11/17 18:32:24;;;;;;;5.18;1.95;;;;;;;;;;8352781;28;20043;-62
2022/11/17 18:36:25;;;;;;;3.22;1.95;;;;;;;;;;8355937;28;20021;-63
2022/11/17 18:40:25;;;;;;;3.95;2.40;;;;;;;;;;8354404;28;21062;-62
2022/11/17 18:44:25;;;;;;;3.22;2.10;;;;;;;;;;8354981;28;20063;-63
2022/11/17 18:48:25;;;;;;;6.10;2.70;;;;;;;;;;8354838;28;20976;-62
2022/11/17 18:52:26;;;;;;;2.78;1.98;;;;;;;;;;8355433;28;20479;-63
2022/11/17 18:56:30;;;;;;;5.33;2.40;;;;;;;;;;8352643;28;20032;-62
2022/11/17 19:00:30;;;;;;;5.70;1.70;;;;;;;;;;8353002;28;20279;-63
2022/11/17 19:04:30;;;;;;;3.60;1.80;;;;;;;;;;8353799;28;20670;-62
2022/11/17 19:08:31;;;;;;;2.20;1.80;;;;;;;;;;8355490;28;20129;-63
2022/11/17 19:12:31;;;;;;;6.13;2.00;;;;;;;;;;8353446;28;20263;-63
2022/11/17 19:16:32;;;;;;;2.90;1.87;;;;;;;;;;8351244;28;20086;-63
2022/11/17 19:20:32;;;;;;;4.55;1.67;;;;;;;;;;8353222;28;20286;-64
2022/11/17 19:24:32;;;;;;;3.92;2.10;;;;;;;;;;8355557;28;20483;-63
2022/11/17 19:28:33;;;;;;;5.38;3.22;;;;;;;;;;8354408;28;20596;-63
2022/11/17 19:32:33;;;;;;;11.00;3.00;;;;;;;;;;8352722;28;20055;-62
2022/11/17 19:36:33;;;;;;;4.43;2.20;;;;;;;;;;8353507;28;20037;-63
2022/11/17 19:40:34;;;;;;;7.10;2.20;;;;;;;;;;8339474;28;20028;-63
2022/11/17 19:44:35;;;;;;;9.02;5.38;;;;;;;;;;8353078;28;20068;-63
2022/11/17 19:48:35;;;;;;;7.05;4.13;;;;;;;;;;8354456;28;20040;-62
2022/11/17 19:52:35;;;;;;;14.23;6.97;;;;;;;;;;8351792;28;20567;-62
2022/11/17 19:56:35;;;;;;;19.92;10.30;;;;;;;;;;8351810;28;20578;-62
2022/11/17 20:00:36;;;;;;;37.20;16.70;;;;;;;;;;8353025;28;20072;-63
2022/11/17 20:04:36;;;;;;;19.90;9.38;;;;;;;;;;8355396;28;20029;-63
2022/11/17 20:08:36;;;;;;;11.30;4.80;;;;;;;;;;8356151;28;20113;-63
2022/11/17 20:12:37;;;;;;;12.27;5.82;;;;;;;;;;8349370;28;20016;-62
2022/11/17 20:16:37;;;;;;;10.70;3.77;;;;;;;;;;8353316;28;20048;-62
2022/11/17 20:20:37;;;;;;;9.50;3.40;;;;;;;;;;8354513;28;20282;-62
2022/11/17 20:24:38;;;;;;;23.30;9.35;;;;;;;;;;8352885;28;20074;-62
2022/11/17 20:28:38;;;;;;;15.02;6.63;;;;;;;;;;8356129;28;20112;-63
2022/11/17 20:32:38;;;;;;;10.45;5.07;;;;;;;;;;8342529;28;20032;-62
2022/11/17 20:36:38;;;;;;;12.15;5.45;;;;;;;;;;8359215;28;20028;-64
2022/11/17 20:40:38;;;;;;;14.57;5.43;;;;;;;;;;8363029;28;20449;-64
2022/11/17 20:44:39;;;;;;;9.75;4.95;;;;;;;;;;8360202;28;20786;-63
2022/11/17 20:48:39;;;;;;;12.93;3.93;;;;;;;;;;8361085;28;20040;-64
2022/11/17 20:52:39;;;;;;;8.77;4.10;;;;;;;;;;8362945;28;20031;-62
2022/11/17 20:56:40;;;;;;;5.15;2.90;;;;;;;;;;8357598;28;20028;-62
2022/11/17 21:00:40;;;;;;;4.75;2.13;;;;;;;;;;8359089;28;20124;-64
2022/11/17 21:04:40;;;;;;;3.93;2.00;;;;;;;;;;8364269;28;20382;-63
2022/11/17 21:08:42;;;;;;;4.40;2.00;;;;;;;;;;8362675;28;20305;-62
2022/11/17 21:12:42;;;;;;;4.43;1.98;;;;;;;;;;8366038;28;20020;-62
2022/11/17 21:16:45;;;;;;;5.63;2.00;;;;;;;;;;8360703;28;20109;-63
2022/11/17 21:20:46;;;;;;;2.83;1.77;;;;;;;;;;8360966;28;20516;-63
2022/11/17 21:24:46;;;;;;;3.05;1.80;;;;;;;;;;8362062;28;20031;-63
2022/11/17 21:28:46;;;;;;;4.75;1.80;;;;;;;;;;8341488;28;20465;-63
2022/11/17 21:32:47;;;;;;;6.00;2.08;;;;;;;;;;8360108;28;20952;-63
2022/11/17 21:36:47;;;;;;;3.88;2.10;;;;;;;;;;8362078;28;20024;-63
2022/11/17 21:40:47;;;;;;;5.03;2.03;;;;;;;;;;8360267;28;20024;-63
2022/11/17 21:44:47;;;;;;;3.35;1.63;;;;;;;;;;8361684;28;20259;-63
2022/11/17 21:48:48;;;;;;;5.20;2.00;;;;;;;;;;8360839;28;20927;-63
2022/11/17 21:52:48;;;;;;;4.28;1.77;;;;;;;;;;8359441;28;20032;-62
2022/11/17 21:56:49;;;;;;;5.50;1.48;;;;;;;;;;8361753;28;20148;-63
2022/11/17 22:00:49;;;;;;;3.97;1.30;;;;;;;;;;8360109;28;20043;-63
2022/11/17 22:04:49;;;;;;;3.15;1.20;;;;;;;;;;8359215;28;20283;-63
2022/11/17 22:08:49;;;;;;;7.07;1.70;;;;;;;;;;8362981;28;20133;-64
2022/11/17 22:12:49;;;;;;;6.07;1.80;;;;;;;;;;8359372;28;20028;-62
2022/11/17 22:16:51;;;;;;;5.28;2.60;;;;;;;;;;8359765;28;20318;-63
2022/11/17 22:20:51;;;;;;;5.55;3.08;;;;;;;;;;8360001;28;20020;-63
2022/11/17 22:24:51;;;;;;;6.82;4.32;;;;;;;;;;8359670;28;20028;-63
2022/11/17 22:28:52;;;;;;;6.40;3.58;;;;;;;;;;8354580;28;20021;-62
2022/11/17 22:32:52;;;;;;;7.80;2.35;;;;;;;;;;8357543;28;20661;-63
2022/11/17 22:36:53;;;;;;;3.20;1.60;;;;;;;;;;8347326;28;20253;-62
2022/11/17 22:41:03;;;;;;;3.07;1.60;;;;;;;;;;8357084;28;20278;-63
2022/11/17 22:45:04;;;;;;;3.30;1.42;;;;;;;;;;8358852;28;20296;-64
2022/11/17 22:49:04;;;;;;;4.10;1.70;;;;;;;;;;8353773;28;20111;-63
2022/11/17 22:53:04;;;;;;;4.95;2.20;;;;;;;;;;8356343;28;20024;-63
2022/11/17 22:57:04;;;;;;;197.60;8.32;;;;;;;;;;8356884;28;20662;-63
2022/11/17 23:01:06;;;;;;;10.02;3.25;;;;;;;;;;8356031;28;20879;-63
2022/11/17 23:05:06;;;;;;;27.33;3.33;;;;;;;;;;8354748;28;20027;-64
2022/11/17 23:09:06;;;;;;;13.43;2.83;;;;;;;;;;8357937;28;20808;-63
2022/11/17 23:13:06;;;;;;;44.03;3.10;;;;;;;;;;8356209;28;20029;-63
2022/11/17 23:17:07;;;;;;;4.13;2.45;;;;;;;;;;8356000;28;20032;-63
2022/11/17 23:21:08;;;;;;;10.20;5.07;;;;;;;;;;8354352;28;20132;-64
2022/11/17 23:25:08;;;;;;;4.07;1.60;;;;;;;;;;8358180;28;20020;-63
2022/11/17 23:29:09;;;;;;;1.58;1.08;;;;;;;;;;8356428;28;20024;-62
2022/11/17 23:33:09;;;;;;;4.75;1.25;;;;;;;;;;8356187;28;20118;-62
2022/11/17 23:37:09;;;;;;;1.67;0.80;;;;;;;;;;8359442;28;20020;-62
2022/11/17 23:41:11;;;;;;;2.92;1.00;;;;;;;;;;8357377;28;20025;-62
2022/11/17 23:45:11;;;;;;;2.72;0.93;;;;;;;;;;8357835;28;20969;-62
2022/11/17 23:49:12;;;;;;;1.70;1.13;;;;;;;;;;8356664;28;20115;-63
2022/11/17 23:53:12;;;;;;;4.68;1.30;;;;;;;;;;8356001;28;21044;-62
2022/11/17 23:57:12;;;;;;;3.15;1.42;;;;;;;;;;8359438;28;20114;-62
